Time;durP1;ratioP1;P1;durP2;ratioP2;P2;SDS_P1;SDS_P2;PMS_P1;PMS_P2;Temp;Humidity;BMP_temperature;BMP_pressure;BME280_temperature;BME280_humidity;BME280_pressure;Samples;Min_cycle;Max_cycle;Signal;HPM_P1;HPM_P2
2022/07/14 00:02:10;;;;;;;9.87;5.50;;;;;;;19.02;87.27;99677.16;4186782;28;20231;-65
2022/07/14 00:04:36;;;;;;;11.57;4.87;;;;;;;18.99;87.07;99681.13;4197969;28;21733;-63
2022/07/14 00:07:03;;;;;;;9.27;4.33;;;;;;;18.94;87.12;99667.44;4181113;28;25407;-62
2022/07/14 00:09:30;;;;;;;13.57;5.40;;;;;;;18.88;87.17;99666.44;4191227;28;20620;-63
2022/07/14 00:11:56;;;;;;;11.10;5.50;;;;;;;18.84;87.42;99661.72;4189530;28;24174;-64
2022/07/14 00:14:23;;;;;;;9.73;5.13;;;;;;;18.85;87.34;99664.19;4182285;28;20666;-62
2022/07/14 00:16:50;;;;;;;9.93;5.10;;;;;;;18.92;86.90;99664.16;4185374;28;20233;-63
2022/07/14 00:19:17;;;;;;;10.27;5.10;;;;;;;18.87;88.10;99672.91;4184160;28;20233;-60
2022/07/14 00:21:44;;;;;;;12.13;6.03;;;;;;;18.76;87.63;99670.88;4183147;28;23488;-64
2022/07/14 00:24:11;;;;;;;10.00;6.10;;;;;;;18.53;89.14;99669.53;4184828;28;23610;-61
2022/07/14 00:26:42;;;;;;;12.27;5.10;;;;;;;18.48;89.26;99669.38;4184868;28;23090;-62
2022/07/14 00:29:09;;;;;;;9.43;5.80;;;;;;;18.42;89.69;99670.22;4187082;28;20230;-61
2022/07/14 00:31:35;;;;;;;8.40;5.73;;;;;;;18.29;89.93;99659.53;4188056;28;21690;-65
2022/07/14 00:34:02;;;;;;;11.80;5.57;;;;;;;18.19;90.83;99664.53;4200445;28;20236;-63
2022/07/14 00:36:29;;;;;;;9.77;5.73;;;;;;;18.20;90.82;99660.81;4185164;28;20245;-62
2022/07/14 00:38:56;;;;;;;10.83;5.50;;;;;;;18.13;91.21;99650.06;4189536;28;20284;-63
2022/07/14 00:41:23;;;;;;;7.17;5.03;;;;;;;18.14;90.96;99652.53;4193682;28;21119;-60
2022/07/14 00:43:50;;;;;;;11.47;5.80;;;;;;;18.18;90.59;99657.50;4185739;28;20288;-64
2022/07/14 00:46:17;;;;;;;9.13;5.57;;;;;;;18.13;90.98;99661.66;4170322;28;20418;-63
2022/07/14 00:48:43;;;;;;;12.80;6.00;;;;;;;18.07;91.02;99656.28;4186143;28;20230;-62
2022/07/14 00:51:10;;;;;;;10.47;6.30;;;;;;;18.01;91.48;99652.59;4183833;28;21646;-61
2022/07/14 00:53:36;;;;;;;10.10;6.23;;;;;;;17.89;91.99;99648.91;4184674;28;20295;-62
2022/07/14 00:56:03;;;;;;;13.63;5.90;;;;;;;17.90;91.94;99637.91;4189780;28;20243;-62
2022/07/14 00:58:30;;;;;;;13.03;6.27;;;;;;;17.89;91.80;99646.22;4185573;28;20249;-60
2022/07/14 01:00:56;;;;;;;7.13;5.33;;;;;;;17.97;91.44;99650.53;4205930;28;20877;-62
2022/07/14 01:03:23;;;;;;;10.20;6.13;;;;;;;17.77;92.50;99655.94;4204657;28;20224;-63
2022/07/14 01:05:51;;;;;;;12.93;6.17;;;;;;;17.61;93.08;99654.53;4200146;28;23377;-61
2022/07/14 01:08:17;;;;;;;10.83;5.80;;;;;;;17.56;93.40;99671.31;4198962;28;20240;-63
2022/07/14 01:10:44;;;;;;;9.83;6.37;;;;;;;17.43;94.44;99663.25;4200377;28;20299;-61
2022/07/14 01:13:10;;;;;;;8.83;6.50;;;;;;;17.41;94.79;99659.94;4197850;28;20334;-62
2022/07/14 01:15:37;;;;;;;11.30;6.50;;;;;;;17.40;94.92;99667.19;4196645;28;20234;-63
2022/07/14 01:18:03;;;;;;;9.30;6.70;;;;;;;17.28;95.24;99666.16;4203640;28;20321;-61
2022/07/14 01:20:30;;;;;;;11.17;6.60;;;;;;;17.23;95.73;99658.72;4200273;28;20279;-65
2022/07/14 01:22:57;;;;;;;10.77;6.90;;;;;;;17.23;96.38;99658.72;4198927;28;20964;-61
2022/07/14 01:25:24;;;;;;;17.87;8.07;;;;;;;17.14;96.77;99657.28;4219738;28;20240;-60
2022/07/14 01:27:50;;;;;;;12.40;7.90;;;;;;;17.19;96.81;99667.41;4201902;28;20337;-61
2022/07/14 01:30:17;;;;;;;13.30;6.40;;;;;;;17.12;97.39;99658.53;4199720;28;20299;-63
2022/07/14 01:32:43;;;;;;;11.93;6.97;;;;;;;17.07;97.34;99664.50;4196482;28;21382;-63
2022/07/14 01:35:10;;;;;;;14.33;7.23;;;;;;;17.03;97.39;99656.03;4187392;28;20247;-62
2022/07/14 01:37:37;;;;;;;12.10;7.03;;;;;;;17.05;97.47;99666.56;4203423;28;20994;-62
2022/07/14 01:40:04;;;;;;;11.23;6.80;;;;;;;17.01;97.68;99651.88;4193497;28;20359;-64
2022/07/14 01:42:31;;;;;;;13.40;7.20;;;;;;;16.96;98.16;99649.00;4210637;28;20353;-65
2022/07/14 01:44:58;;;;;;;15.30;7.37;;;;;;;16.98;97.93;99653.13;4197689;28;20291;-62
2022/07/14 01:47:25;;;;;;;12.70;6.83;;;;;;;16.84;98.86;99648.78;4208304;28;21596;-62
2022/07/14 01:49:52;;;;;;;13.03;7.50;;;;;;;16.85;98.48;99648.56;4199477;28;20268;-60
2022/07/14 01:52:18;;;;;;;13.17;7.43;;;;;;;16.83;98.88;99650.66;4203016;28;20231;-61
2022/07/14 01:54:45;;;;;;;13.87;7.97;;;;;;;16.79;98.78;99660.16;4189350;28;21148;-60
2022/07/14 01:57:12;;;;;;;11.63;7.40;;;;;;;16.70;99.18;99652.44;4196950;28;22726;-60
2022/07/14 01:59:39;;;;;;;15.63;7.27;;;;;;;16.70;99.35;99655.97;4206641;28;20239;-61
2022/07/14 02:02:05;;;;;;;14.93;6.70;;;;;;;16.73;99.31;99660.09;4188851;28;20237;-59
2022/07/14 02:04:32;;;;;;;11.33;7.57;;;;;;;16.58;99.72;99652.22;4202335;28;20480;-62
2022/07/14 02:06:59;;;;;;;10.93;7.53;;;;;;;16.55;99.77;99657.97;4205369;28;21423;-62
2022/07/14 02:12:10;;;;;;;12.93;7.00;;;;;;;16.53;99.68;99660.91;4199355;28;20327;-61
2022/07/14 02:12:12;;;;;;;15.37;7.43;;;;;;;16.51;99.98;99662.13;4203776;28;20232;-61
2022/07/14 02:14:39;;;;;;;18.13;8.10;;;;;;;16.49;100.00;99654.25;4204229;28;20272;-61
2022/07/14 02:17:05;;;;;;;11.43;7.63;;;;;;;16.39;100.00;99660.03;4202559;28;20279;-62
2022/07/14 02:19:32;;;;;;;14.50;7.30;;;;;;;16.46;100.00;99655.50;4202233;28;20302;-62
2022/07/14 02:21:59;;;;;;;30.87;9.70;;;;;;;16.36;100.00;99664.97;4210888;28;20390;-62
2022/07/14 02:24:25;;;;;;;15.37;7.83;;;;;;;16.30;100.00;99666.59;4198058;28;23676;-62
2022/07/14 02:26:52;;;;;;;17.27;7.80;;;;;;;16.25;100.00;99674.44;4199044;28;20228;-60
2022/07/14 02:29:20;;;;;;;12.40;7.87;;;;;;;16.16;100.00;99672.94;4204616;28;20475;-61
2022/07/14 02:31:46;;;;;;;11.57;7.50;;;;;;;16.23;100.00;99674.63;4206926;28;20237;-61
2022/07/14 02:34:13;;;;;;;13.47;8.10;;;;;;;16.16;100.00;99675.63;4210219;28;21106;-62
2022/07/14 02:36:40;;;;;;;15.50;7.10;;;;;;;16.14;100.00;99667.78;4208196;28;20285;-63
2022/07/14 02:39:07;;;;;;;15.33;7.53;;;;;;;16.19;100.00;99669.84;4207324;28;20309;-61
2022/07/14 02:41:34;;;;;;;14.63;8.10;;;;;;;16.20;100.00;99668.81;4202617;28;20311;-63
2022/07/14 02:44:01;;;;;;;14.13;7.90;;;;;;;16.22;100.00;99669.44;4202036;28;23694;-64
2022/07/14 02:46:27;;;;;;;12.63;7.13;;;;;;;16.28;100.00;99668.66;4206755;28;20342;-60
2022/07/14 02:48:54;;;;;;;10.60;7.23;;;;;;;16.31;100.00;99668.25;4209932;28;20227;-61
2022/07/14 02:51:20;;;;;;;14.03;7.73;;;;;;;16.42;100.00;99666.84;4203224;28;21132;-62
2022/07/14 02:53:47;;;;;;;11.83;6.70;;;;;;;16.38;100.00;99668.28;4218273;28;20617;-64
2022/07/14 02:56:13;;;;;;;10.03;7.40;;;;;;;16.45;100.00;99663.75;4201056;28;22024;-62
2022/07/14 02:58:40;;;;;;;12.83;7.10;;;;;;;16.48;100.00;99662.50;4190496;28;20653;-63
2022/07/14 03:01:08;;;;;;;10.77;6.63;;;;;;;16.56;99.89;99667.72;4200031;28;20613;-62
2022/07/14 03:03:36;;;;;;;14.63;6.77;;;;;;;16.61;99.55;99673.28;4211405;28;20300;-62
2022/07/14 03:06:10;;;;;;;14.10;7.53;;;;;;;16.52;99.46;99664.59;4200665;28;20240;-63
2022/07/14 03:08:38;;;;;;;12.10;7.70;;;;;;;16.57;99.13;99666.66;4199138;28;22328;-61
2022/07/14 03:11:05;;;;;;;10.33;6.87;;;;;;;16.68;98.62;99674.97;4197965;28;20240;-61
2022/07/14 03:13:33;;;;;;;16.67;7.93;;;;;;;16.62;97.82;99674.94;4211212;28;21467;-63
2022/07/14 03:15:59;;;;;;;13.87;7.20;;;;;;;16.67;97.65;99677.88;4198423;28;23389;-62
2022/07/14 03:18:26;;;;;;;19.83;6.80;;;;;;;16.69;97.55;99678.47;4192932;28;20248;-61
2022/07/14 03:20:53;;;;;;;13.57;7.00;;;;;;;16.64;96.94;99680.94;4201491;28;20379;-62
2022/07/14 03:23:20;;;;;;;13.93;6.93;;;;;;;16.65;96.99;99685.31;4203531;28;20360;-63
2022/07/14 03:25:47;;;;;;;10.43;6.80;;;;;;;16.64;96.66;99684.44;4204142;28;22253;-64
2022/07/14 03:28:14;;;;;;;12.23;6.90;;;;;;;16.56;97.52;99689.19;4199850;28;20232;-64
2022/07/14 03:30:41;;;;;;;10.63;6.60;;;;;;;16.58;97.54;99689.84;4203970;28;20516;-63
2022/07/14 03:33:08;;;;;;;15.47;6.80;;;;;;;16.67;97.55;99694.00;4209667;28;20252;-64
2022/07/14 03:35:40;;;;;;;12.00;6.53;;;;;;;16.65;96.75;99690.69;4200357;28;21978;-63
2022/07/14 03:38:06;;;;;;;11.23;6.30;;;;;;;16.69;96.92;99697.28;4208157;28;20236;-62
2022/07/14 03:40:53;;;;;;;17.20;7.17;;;;;;;16.66;97.64;99698.50;4212535;28;20238;-63
2022/07/14 03:43:19;;;;;;;13.17;6.77;;;;;;;16.80;96.95;99698.59;4200561;28;20613;-63
2022/07/14 03:45:46;;;;;;;12.17;6.90;;;;;;;16.82;96.07;99700.03;4217566;28;20237;-63
2022/07/14 03:48:13;;;;;;;8.73;6.00;;;;;;;16.98;96.02;99698.00;4200084;28;20241;-63
2022/07/14 03:50:41;;;;;;;13.40;6.77;;;;;;;17.06;95.07;99703.16;4201927;28;20234;-62
2022/07/14 03:53:08;;;;;;;16.50;6.10;;;;;;;17.06;95.07;99697.78;4202447;28;20232;-63
2022/07/14 03:55:34;;;;;;;13.57;6.40;;;;;;;17.09;94.73;99687.47;4197457;28;20286;-62
2022/07/14 03:58:01;;;;;;;9.53;6.47;;;;;;;17.21;94.04;99695.75;4197955;28;20232;-60
2022/07/14 04:00:27;;;;;;;13.57;6.47;;;;;;;17.37;93.21;99697.19;4184662;28;20240;-63
2022/07/14 04:02:54;;;;;;;22.57;6.93;;;;;;;17.42;93.14;99701.94;4169471;28;20525;-62
2022/07/14 04:05:21;;;;;;;9.63;6.30;;;;;;;17.45;92.83;99707.72;4181248;28;20238;-63
2022/07/14 04:07:48;;;;;;;13.47;6.10;;;;;;;17.52;92.49;99699.66;4182671;28;20254;-63
2022/07/14 04:10:15;;;;;;;11.63;6.43;;;;;;;17.57;92.95;99705.25;4195970;28;20240;-62
2022/07/14 04:12:41;;;;;;;12.30;6.43;;;;;;;17.61;92.75;99706.47;4181252;28;20237;-63
2022/07/14 04:15:08;;;;;;;12.17;6.60;;;;;;;17.48;93.09;99701.94;4183556;28;20451;-59
2022/07/14 04:17:35;;;;;;;9.87;6.50;;;;;;;17.54;92.80;99697.59;4183208;28;20315;-56
2022/07/14 04:20:02;;;;;;;12.93;6.37;;;;;;;17.63;92.24;99698.19;4184416;28;20288;-61
2022/07/14 04:22:28;;;;;;;9.13;6.00;;;;;;;17.68;92.14;99693.84;4184084;28;21230;-57
2022/07/14 04:25:06;;;;;;;11.57;6.60;;;;;;;17.69;91.60;99691.97;4186912;28;20336;-61
2022/07/14 04:27:33;;;;;;;11.90;6.90;;;;;;;17.70;92.03;99705.22;4190707;28;23586;-61
2022/07/14 04:29:59;;;;;;;9.90;6.20;;;;;;;17.86;91.72;99704.00;4191161;28;20234;-60
2022/07/14 04:32:26;;;;;;;13.97;6.77;;;;;;;18.06;90.81;99701.25;4182859;28;20292;-63
2022/07/14 04:34:53;;;;;;;13.90;6.20;;;;;;;18.17;89.72;99701.59;4183361;28;21108;-61
2022/07/14 04:37:19;;;;;;;13.73;7.77;;;;;;;18.27;89.01;99693.91;4184434;28;20241;-59
2022/07/14 04:39:46;;;;;;;9.20;5.90;;;;;;;18.37;88.72;99705.06;4184777;28;20356;-63
2022/07/14 04:42:14;;;;;;;11.07;6.03;;;;;;;18.48;88.19;99700.88;4191597;28;20638;-62
2022/07/14 04:44:43;;;;;;;14.57;6.07;;;;;;;18.46;88.59;99698.38;4186789;28;20995;-58
2022/07/14 04:47:09;;;;;;;9.43;6.13;;;;;;;18.46;88.43;99700.25;4183797;28;20365;-60
2022/07/14 04:52:21;;;;;;;13.50;6.43;;;;;;;18.60;88.88;99706.41;4189495;28;20336;-66
2022/07/14 04:54:49;;;;;;;11.37;6.20;;;;;;;18.79;87.75;99705.50;4173775;28;20308;-62
2022/07/14 04:57:15;;;;;;;9.53;6.23;;;;;;;18.80;87.65;99698.22;4178425;28;20305;-63
2022/07/14 04:59:42;;;;;;;7.23;5.70;;;;;;;18.96;86.07;99708.50;4194829;28;20239;-54
2022/07/14 05:02:09;;;;;;;12.47;5.80;;;;;;;19.02;86.73;99706.81;4193125;28;20244;-53
2022/07/14 05:04:36;;;;;;;13.77;5.97;;;;;;;19.10;85.81;99706.53;4210597;28;20224;-50
2022/07/14 05:07:04;;;;;;;8.97;5.70;;;;;;;19.08;84.75;99704.06;4203404;28;20344;-47
2022/07/14 05:09:33;;;;;;;11.03;5.47;;;;;;;19.16;84.26;99705.66;4186593;28;20387;-54
2022/07/14 05:12:02;;;;;;;10.77;5.90;;;;;;;19.24;83.78;99705.38;4201938;28;20244;-56
2022/07/14 05:14:29;;;;;;;9.07;5.47;;;;;;;19.18;83.77;99701.69;4199840;28;20233;-53
2022/07/14 05:16:56;;;;;;;9.20;5.50;;;;;;;19.37;84.68;99705.28;4196059;28;20232;-54
2022/07/14 05:19:40;;;;;;;9.33;5.23;;;;;;;19.61;82.37;99705.47;4198299;28;20241;-54
2022/07/14 05:22:07;;;;;;;8.37;4.97;;;;;;;19.68;81.29;99708.97;4202634;28;20241;-52
2022/07/14 05:24:34;;;;;;;9.20;4.87;;;;;;;19.71;81.76;99711.22;4194803;28;20244;-55
2022/07/14 05:27:01;;;;;;;11.00;4.43;;;;;;;19.84;80.46;99712.16;4208785;28;21446;-54
2022/07/14 05:29:28;;;;;;;7.37;4.33;;;;;;;20.05;79.26;99714.41;4190383;28;20234;-48
2022/07/14 05:31:54;;;;;;;8.80;4.70;;;;;;;19.95;78.17;99714.13;4207853;28;20532;-50
2022/07/14 05:34:29;;;;;;;7.30;3.63;;;;;;;20.09;77.16;99718.34;4201771;28;26169;-50
2022/07/14 05:36:56;;;;;;;7.93;3.73;;;;;;;20.58;75.09;99727.34;4194603;28;21711;-52
2022/07/14 05:39:23;;;;;;;8.67;3.63;;;;;;;20.76;72.70;99731.03;4205136;28;20243;-50
2022/07/14 05:41:49;;;;;;;14.63;4.03;;;;;;;21.04;70.63;99735.84;4189514;28;20450;-49
2022/07/14 05:44:16;;;;;;;9.90;3.30;;;;;;;21.21;69.79;99730.56;4205274;28;20355;-55
2022/07/14 05:46:42;;;;;;;6.43;3.30;;;;;;;21.71;66.68;99733.75;4186189;28;21665;-52
2022/07/14 05:49:09;;;;;;;8.87;2.93;;;;;;;22.34;63.91;99751.16;4192612;28;20232;-49
2022/07/14 05:51:35;;;;;;;10.47;2.90;;;;;;;22.75;61.42;99749.22;4203329;28;20244;-51
2022/07/14 05:54:02;;;;;;;9.17;3.10;;;;;;;22.52;62.76;99747.44;4199973;28;20593;-50
2022/07/14 05:56:29;;;;;;;7.30;3.13;;;;;;;22.86;61.53;99750.25;4200019;28;20251;-50
2022/07/14 05:58:55;;;;;;;6.63;2.73;;;;;;;23.34;58.35;99759.84;4196994;28;20240;-52
2022/07/14 06:01:22;;;;;;;6.60;3.00;;;;;;;23.98;56.01;99759.50;4216064;28;20806;-53
2022/07/14 06:03:53;;;;;;;4.63;2.70;;;;;;;24.22;54.47;99770.16;4193852;28;23711;-51
2022/07/14 06:06:20;;;;;;;8.30;2.80;;;;;;;24.33;53.81;99771.13;4202093;28;22749;-59
2022/07/14 06:08:47;;;;;;;4.27;2.17;;;;;;;24.57;53.95;99771.72;4204642;28;20300;-49
2022/07/14 06:11:13;;;;;;;7.57;2.57;;;;;;;25.15;51.79;99766.66;4199550;28;22129;-50
2022/07/14 06:13:41;;;;;;;6.00;2.37;;;;;;;25.95;50.24;99770.34;4207279;28;20577;-51
2022/07/14 06:16:09;;;;;;;10.60;2.70;;;;;;;26.50;47.63;99782.63;4199861;28;21554;-55
2022/07/14 06:18:36;;;;;;;3.77;2.30;;;;;;;26.95;46.35;99783.09;4200258;28;20237;-49
2022/07/14 06:21:09;;;;;;;6.50;2.70;;;;;;;28.05;43.07;99779.06;4203910;28;20231;-53
2022/07/14 06:23:37;;;;;;;5.43;2.67;;;;;;;28.93;39.59;99790.50;4201378;28;20307;-54
2022/07/14 06:26:10;;;;;;;3.97;2.20;;;;;;;28.72;39.60;99787.06;4221117;28;25693;-53
2022/07/14 06:28:37;;;;;;;3.23;2.20;;;;;;;29.08;38.17;99789.63;4206821;28;20387;-48
2022/07/14 06:31:04;;;;;;;3.87;2.03;;;;;;;28.52;39.47;99782.50;4196286;28;21318;-50
2022/07/14 06:33:31;;;;;;;7.05;2.10;;;;;;;29.03;37.83;99788.53;4195635;28;25538;-53
2022/07/14 06:35:57;;;;;;;5.40;2.20;;;;;;;28.97;37.72;99788.84;4205421;28;21136;-54
2022/07/14 06:38:28;;;;;;;7.13;2.33;;;;;;;28.72;37.35;99792.53;4209004;28;20237;-52
2022/07/14 06:40:54;;;;;;;5.57;2.38;;;;;;;29.15;37.32;99795.59;4197019;28;20241;-50
2022/07/14 06:43:22;;;;;;;4.57;2.23;;;;;;;28.56;39.27;99784.38;4196535;28;23529;-52
2022/07/14 06:45:49;;;;;;;4.57;2.17;;;;;;;30.07;36.07;99801.16;4191624;28;20240;-64
2022/07/14 06:48:15;;;;;;;7.95;2.15;;;;;;;30.17;35.35;99788.44;4205520;28;20297;-60
2022/07/14 06:50:42;;;;;;;5.78;2.03;;;;;;;30.71;32.82;99798.25;4196587;28;22836;-61
2022/07/14 06:53:09;;;;;;;3.10;1.58;;;;;;;30.52;32.44;99802.91;4184429;28;20240;-63
2022/07/14 06:55:35;;;;;;;5.95;2.08;;;;;;;29.28;34.77;99792.22;4198835;28;20237;-63
2022/07/14 06:58:02;;;;;;;7.90;2.03;;;;;;;28.86;35.94;99792.75;4206945;28;20242;-62
2022/07/14 07:00:30;;;;;;;4.85;1.73;;;;;;;29.82;34.46;99796.75;4193978;28;20316;-63
2022/07/14 07:02:57;;;;;;;4.30;2.07;;;;;;;29.82;34.13;99791.25;4183971;28;20233;-61
2022/07/14 07:08:09;;;;;;;5.22;1.90;;;;;;;31.63;30.88;99796.97;4188250;28;20244;-62
2022/07/14 07:10:40;;;;;;;5.07;1.80;;;;;;;31.42;31.82;99801.97;4202025;28;20250;-62
2022/07/14 07:13:08;;;;;;;2.45;1.75;;;;;;;31.26;32.63;99793.13;4202917;28;20319;-65
2022/07/14 07:15:38;;;;;;;5.90;1.90;;;;;;;31.58;30.60;99804.47;4181313;28;20240;-62
2022/07/14 07:18:06;;;;;;;2.83;1.80;;;;;;;29.67;34.15;99784.00;4194410;28;21768;-67
2022/07/14 07:20:35;;;;;;;8.82;1.67;;;;;;;29.52;34.12;99778.59;4189721;28;21967;-64
2022/07/14 07:23:02;;;;;;;3.63;1.50;;;;;;;29.19;34.35;99780.22;4184566;28;20296;-66
2022/07/14 07:25:29;;;;;;;3.00;1.63;;;;;;;28.59;35.31;99778.34;4180689;28;20304;-65
2022/07/14 07:27:56;;;;;;;6.03;1.87;;;;;;;28.68;35.25;99769.53;4198011;28;20296;-66
2022/07/14 07:30:23;;;;;;;4.40;1.80;;;;;;;28.33;35.26;99774.03;4191596;28;20242;-68
2022/07/14 07:32:50;;;;;;;3.63;1.73;;;;;;;27.56;37.69;99765.97;4184780;28;20229;-68
2022/07/14 07:35:18;;;;;;;4.47;1.50;;;;;;;26.60;38.33;99749.13;4196739;28;20307;-61
2022/07/14 07:37:45;;;;;;;4.03;1.40;;;;;;;26.17;40.20;99750.28;4189941;28;20477;-61
2022/07/14 07:40:12;;;;;;;3.87;1.43;;;;;;;25.82;42.57;99749.75;4194375;28;20244;-64
2022/07/14 07:42:39;;;;;;;5.07;1.87;;;;;;;25.12;43.93;99743.44;4197836;28;20347;-60
2022/07/14 07:45:06;;;;;;;3.00;1.80;;;;;;;25.53;43.03;99745.75;4183747;28;23288;-63
2022/07/14 07:47:32;;;;;;;2.57;1.60;;;;;;;24.87;45.22;99746.75;4189527;28;21158;-63
2022/07/14 07:49:59;;;;;;;4.00;1.70;;;;;;;24.74;45.47;99742.53;4187722;28;20334;-63
2022/07/14 07:52:26;;;;;;;2.30;1.40;;;;;;;24.90;45.02;99742.72;4202067;28;20245;-62
2022/07/14 07:54:52;;;;;;;4.50;1.93;;;;;;;24.62;44.91;99744.56;4206931;28;23613;-62
2022/07/14 07:57:39;;;;;;;5.47;1.40;;;;;;;24.57;44.88;99739.91;4212720;28;22708;-62
2022/07/14 08:00:07;;;;;;;7.03;2.03;;;;;;;24.41;46.13;99738.84;4201868;28;20717;-50
2022/07/14 08:02:33;;;;;;;3.73;1.40;;;;;;;24.53;46.53;99743.38;4188802;28;21369;-58
2022/07/14 08:05:00;;;;;;;5.10;1.60;;;;;;;24.31;45.11;99736.03;4187207;28;20240;-64
2022/07/14 08:07:26;;;;;;;6.93;1.73;;;;;;;24.37;46.13;99751.34;4191096;28;20462;-66
2022/07/14 08:09:53;;;;;;;2.50;1.33;;;;;;;24.44;45.88;99751.13;4188740;28;20951;-66
2022/07/14 08:12:25;;;;;;;6.57;1.63;;;;;;;24.58;44.06;99751.59;4184315;28;20679;-66
2022/07/14 08:14:52;;;;;;;5.03;1.60;;;;;;;24.63;45.39;99755.22;4193442;28;20256;-68
2022/07/14 08:17:21;;;;;;;8.23;1.77;;;;;;;24.87;44.77;99752.22;4193936;28;20268;-68
2022/07/14 08:19:48;;;;;;;4.97;1.40;;;;;;;24.60;45.01;99755.69;4193956;28;20229;-70
2022/07/14 08:22:15;;;;;;;5.97;1.50;;;;;;;24.19;45.69;99746.19;4189875;28;22286;-71
2022/07/14 08:24:41;;;;;;;4.50;1.60;;;;;;;24.36;45.79;99757.03;4190496;28;21063;-72
2022/07/14 08:27:08;;;;;;;4.90;1.53;;;;;;;24.20;47.06;99750.56;4199204;28;20240;-69
2022/07/14 08:29:34;;;;;;;8.57;1.57;;;;;;;24.12;47.33;99751.81;4179684;28;20257;-67
2022/07/14 08:32:01;;;;;;;2.83;1.60;;;;;;;23.83;47.04;99740.25;4188564;28;20480;-65
2022/07/14 08:34:27;;;;;;;7.10;1.77;;;;;;;24.05;47.24;99742.22;4196198;28;20618;-64
2022/07/14 08:36:54;;;;;;;4.07;1.70;;;;;;;24.04;47.19;99740.53;4179119;28;20268;-64
2022/07/14 08:39:27;;;;;;;10.80;2.07;;;;;;;24.12;46.16;99749.09;4190593;28;20277;-63
2022/07/14 08:41:56;;;;;;;8.47;1.87;;;;;;;24.25;45.55;99747.06;4203701;28;20237;-58
2022/07/14 08:44:25;;;;;;;5.80;1.53;;;;;;;24.02;43.37;99754.38;4194813;28;20379;-62
2022/07/14 08:46:53;;;;;;;5.97;1.93;;;;;;;24.21;42.75;99746.78;4193592;28;20552;-62
2022/07/14 08:49:19;;;;;;;3.50;1.20;;;;;;;24.12;42.07;99749.09;4195450;28;20249;-58
2022/07/14 08:52:06;;;;;;;2.77;1.33;;;;;;;23.95;42.47;99753.72;4212060;28;20630;-73
2022/07/14 08:54:32;;;;;;;4.40;1.43;;;;;;;24.00;43.81;99753.84;4195982;28;20236;-50
2022/07/14 08:56:59;;;;;;;5.70;1.77;;;;;;;23.99;44.39;99752.16;4196452;28;21077;-48
2022/07/14 08:59:25;;;;;;;4.47;1.40;;;;;;;24.11;44.67;99755.59;4204763;28;21699;-66
2022/07/14 09:01:53;;;;;;;4.90;1.60;;;;;;;23.85;44.72;99745.44;4195062;28;20601;-64
2022/07/14 09:04:19;;;;;;;2.77;1.33;;;;;;;24.05;45.92;99758.50;4207156;28;22490;-65
2022/07/14 09:06:54;;;;;;;4.07;1.37;;;;;;;24.06;44.12;99766.41;4209653;28;20750;-65
2022/07/14 09:09:30;;;;;;;5.37;1.67;;;;;;;23.66;45.01;99750.28;4190343;28;21078;-65
2022/07/14 09:12:04;;;;;;;7.13;1.47;;;;;;;23.47;45.73;99758.69;4188643;28;20230;-64
2022/07/14 09:17:25;;;;;;;5.43;1.80;;;;;;;23.52;44.02;99750.63;4175101;28;20244;-68
2022/07/14 09:20:11;;;;;;;5.80;1.70;;;;;;;23.62;42.18;99755.38;4198595;28;25731;-68
2022/07/14 09:22:40;;;;;;;4.93;1.70;;;;;;;23.66;44.25;99753.81;4193384;28;20611;-67
2022/07/14 09:25:15;;;;;;;4.90;2.00;;;;;;;23.72;44.25;99754.75;4193122;28;20237;-66
2022/07/14 09:27:45;;;;;;;3.17;1.60;;;;;;;23.66;43.84;99755.72;4186430;28;20299;-66
2022/07/14 09:30:13;;;;;;;7.03;1.70;;;;;;;23.35;43.12;99757.94;4193809;28;20518;-65
2022/07/14 09:32:42;;;;;;;4.97;1.97;;;;;;;23.14;42.97;99749.44;4194281;28;20292;-67
2022/07/14 09:35:11;;;;;;;9.20;2.00;;;;;;;23.52;40.83;99756.06;4190388;28;20233;-65
2022/07/14 09:37:39;;;;;;;4.60;1.73;;;;;;;23.45;39.97;99752.69;4194388;28;20659;-67
2022/07/14 09:40:10;;;;;;;3.67;1.70;;;;;;;23.45;40.18;99743.72;4189640;28;21007;-66
2022/07/14 09:42:50;;;;;;;6.40;1.50;;;;;;;23.52;39.58;99747.91;4198561;28;20249;-66
2022/07/14 09:45:18;;;;;;;2.97;1.10;;;;;;;23.29;38.43;99758.91;4192241;28;20232;-66
2022/07/14 09:47:56;;;;;;;4.73;1.10;;;;;;;23.12;37.93;99759.72;4188833;28;20229;-66
2022/07/14 09:50:41;;;;;;;3.30;1.40;;;;;;;23.12;38.28;99750.75;4187688;28;20283;-66
2022/07/14 09:53:16;;;;;;;4.37;1.40;;;;;;;23.06;37.02;99747.16;4195772;28;20601;-66
2022/07/14 09:55:49;;;;;;;6.47;1.30;;;;;;;23.17;38.01;99754.38;4210931;28;20302;-66
2022/07/14 09:58:15;;;;;;;4.00;1.10;;;;;;;23.15;36.66;99750.25;4212867;28;20244;-67
2022/07/14 10:00:43;;;;;;;2.90;1.30;;;;;;;23.11;37.79;99755.38;4205711;28;20547;-67
2022/07/14 10:03:09;;;;;;;4.10;1.27;;;;;;;23.31;36.75;99752.16;4202113;28;20418;-68
2022/07/14 10:05:38;;;;;;;9.20;1.10;;;;;;;23.41;35.01;99756.94;4192909;28;20456;-68
2022/07/14 10:08:05;;;;;;;4.60;1.30;;;;;;;23.24;34.83;99759.66;4189197;28;20316;-66
2022/07/14 10:10:34;;;;;;;2.97;1.07;;;;;;;23.22;35.33;99755.53;4203957;28;20913;-66
2022/07/14 10:13:03;;;;;;;5.90;1.37;;;;;;;23.26;36.18;99752.09;4187384;28;22434;-67
2022/07/14 10:15:38;;;;;;;5.37;1.23;;;;;;;23.62;36.83;99751.84;4198732;28;20251;-65
2022/07/14 10:18:05;;;;;;;5.33;1.30;;;;;;;23.56;36.15;99759.94;4197065;28;20241;-66
2022/07/14 10:20:32;;;;;;;7.60;1.30;;;;;;;23.64;34.92;99758.69;4195346;28;20362;-67
2022/07/14 10:23:00;;;;;;;3.93;1.23;;;;;;;23.51;36.27;99746.28;4189275;28;21031;-67
2022/07/14 10:25:28;;;;;;;8.27;1.20;;;;;;;23.68;36.70;99745.44;4191397;28;20406;-66
2022/07/14 10:27:54;;;;;;;5.63;1.20;;;;;;;23.84;36.79;99752.78;4199731;28;20245;-63
2022/07/14 10:30:39;;;;;;;7.13;1.40;;;;;;;23.82;33.79;99748.66;4195436;28;20321;-64
2022/07/14 10:33:12;;;;;;;4.43;1.20;;;;;;;24.00;34.96;99749.22;4189341;28;20365;-65
2022/07/14 10:35:41;;;;;;;2.50;1.20;;;;;;;23.99;35.91;99747.53;4195539;28;20610;-64
2022/07/14 10:38:32;;;;;;;5.17;1.30;;;;;;;23.76;36.83;99747.75;4195277;28;20305;-66
2022/07/14 10:41:29;;;;;;;4.80;1.43;;;;;;;23.72;38.83;99741.97;4221243;28;20254;-64
2022/07/14 10:44:19;;;;;;;3.83;1.40;;;;;;;23.67;38.47;99739.19;4202020;28;20617;-64
2022/07/14 10:46:47;;;;;;;3.77;1.33;;;;;;;23.74;38.73;99731.72;4198419;28;25893;-66
2022/07/14 10:49:16;;;;;;;7.00;1.60;;;;;;;23.64;38.56;99744.28;4223884;28;23501;-65
2022/07/14 10:51:47;;;;;;;4.03;1.20;;;;;;;23.69;37.32;99741.63;4197016;28;21138;-63
2022/07/14 10:54:23;;;;;;;4.77;1.10;;;;;;;23.66;36.13;99744.88;4196730;28;21255;-63
2022/07/14 10:57:11;;;;;;;4.57;1.70;;;;;;;23.73;36.34;99740.06;4204120;28;23084;-66
2022/07/14 10:59:40;;;;;;;4.00;1.50;;;;;;;23.89;37.42;99755.56;4203376;28;21741;-67
2022/07/14 11:02:12;;;;;;;6.37;1.50;;;;;;;23.84;36.59;99747.34;4194321;28;20637;-64
2022/07/14 11:05:04;;;;;;;3.43;1.10;;;;;;;24.07;36.46;99746.31;4196158;28;20263;-63
2022/07/14 11:07:38;;;;;;;2.77;1.20;;;;;;;24.06;35.66;99750.09;4211810;28;21922;-67
2022/07/14 11:10:25;;;;;;;6.43;1.50;;;;;;;24.11;35.54;99749.34;4202457;28;20415;-68
2022/07/14 11:13:07;;;;;;;4.57;1.40;;;;;;;24.09;33.07;99748.75;4203141;28;20232;-65
2022/07/14 11:15:54;;;;;;;4.53;1.47;;;;;;;24.02;33.36;99743.50;4199845;28;20232;-62
2022/07/14 11:18:35;;;;;;;5.20;1.33;;;;;;;24.07;35.09;99745.47;4208380;28;20299;-63
2022/07/14 11:21:17;;;;;;;5.20;1.30;;;;;;;24.15;34.47;99754.03;4199319;28;20244;-61
2022/07/14 11:23:47;;;;;;;3.83;1.40;;;;;;;24.10;34.85;99755.88;4206296;28;20290;-59
2022/07/14 11:26:35;;;;;;;7.53;1.53;;;;;;;24.18;35.30;99749.97;4191220;28;20261;-61
2022/07/14 11:29:04;;;;;;;5.83;1.30;;;;;;;24.19;34.33;99749.75;4192071;28;20640;-64
2022/07/14 11:31:45;;;;;;;3.60;1.30;;;;;;;24.01;35.37;99750.84;4194145;28;20384;-66
2022/07/14 11:37:13;;;;;;;7.53;1.60;;;;;;;23.96;34.93;99744.53;4206947;28;20574;-61
2022/07/14 11:40:00;;;;;;;6.23;1.60;;;;;;;24.09;36.68;99743.34;4204334;28;22448;-62
2022/07/14 11:42:27;;;;;;;3.80;1.30;;;;;;;24.29;34.58;99754.47;4211656;28;20230;-63
2022/07/14 11:44:54;;;;;;;6.17;1.50;;;;;;;24.20;35.69;99745.94;4196081;28;20242;-64
2022/07/14 11:47:28;;;;;;;3.07;1.50;;;;;;;24.30;34.92;99745.25;4201025;28;20803;-63
2022/07/14 11:50:07;;;;;;;7.47;1.23;;;;;;;24.27;34.08;99737.59;4201687;28;20244;-64